createdAt,value
2023-04-07T00:01:40.786Z,84.58
2023-04-07T00:04:07.908Z,85.23
2023-04-07T00:06:35.198Z,86.22
2023-04-07T00:09:02.351Z,86.93
2023-04-07T00:11:29.461Z,87.80
2023-04-07T00:13:56.568Z,88.24
2023-04-07T00:16:24.192Z,89.79
2023-04-07T00:18:51.282Z,91.82
2023-04-07T00:21:18.344Z,91.55
2023-04-07T00:23:45.378Z,91.79
2023-04-07T00:26:12.354Z,93.23
2023-04-07T00:28:41.375Z,92.05
2023-04-07T00:31:08.488Z,94.29
2023-04-07T00:33:35.616Z,94.25
2023-04-07T00:36:02.614Z,95.36
2023-04-07T00:38:29.529Z,96.51
2023-04-07T00:41:00.314Z,97.57
2023-04-07T00:43:27.765Z,98.59
2023-04-07T00:45:55.045Z,100.00
2023-04-07T00:48:22.701Z,100.00
2023-04-07T00:50:49.993Z,100.00
2023-04-07T00:53:17.835Z,100.00
2023-04-07T00:55:45.986Z,100.00
2023-04-07T00:58:12.919Z,100.00
2023-04-07T01:01:05.680Z,100.00
2023-04-07T01:03:58.094Z,100.00
2023-04-07T01:06:31.823Z,100.00
2023-04-07T01:09:25.729Z,100.00
2023-04-07T01:12:11.707Z,100.00
2023-04-07T01:14:46.151Z,100.00
2023-04-07T01:17:38.315Z,100.00
2023-04-07T01:20:10.250Z,100.00
2023-04-07T01:22:48.157Z,100.00
2023-04-07T01:25:36.769Z,100.00
2023-04-07T01:28:31.050Z,100.00
2023-04-07T01:31:00.292Z,100.00
2023-04-07T01:33:32.550Z,100.00
2023-04-07T01:36:02.036Z,100.00
2023-04-07T01:38:30.691Z,100.00
2023-04-07T01:41:00.967Z,100.00
2023-04-07T01:43:29.197Z,100.00
2023-04-07T01:45:57.733Z,100.00
2023-04-07T01:48:26.225Z,100.00
2023-04-07T01:50:53.873Z,100.00
2023-04-07T01:53:21.515Z,100.00
2023-04-07T01:55:48.604Z,100.00
2023-04-07T01:58:15.657Z,100.00
2023-04-07T02:00:43.830Z,100.00
2023-04-07T02:03:29.041Z,100.00
2023-04-07T02:06:01.563Z,100.00
2023-04-07T02:08:32.912Z,100.00
2023-04-07T02:11:03.978Z,100.00
2023-04-07T02:13:35.560Z,100.00
2023-04-07T02:16:02.948Z,100.00
2023-04-07T02:18:32.513Z,100.00
2023-04-07T02:21:01.664Z,100.00
2023-04-07T02:23:28.795Z,100.00
2023-04-07T02:25:58.368Z,100.00
2023-04-07T02:28:25.709Z,100.00
2023-04-07T02:30:52.721Z,100.00
2023-04-07T02:33:19.685Z,100.00
2023-04-07T02:35:46.678Z,100.00
2023-04-07T02:38:13.682Z,100.00
2023-04-07T02:40:40.708Z,100.00
2023-04-07T02:43:08.786Z,100.00
2023-04-07T02:45:35.859Z,100.00
2023-04-07T02:48:04.009Z,100.00
2023-04-07T02:50:30.894Z,100.00
2023-04-07T02:52:57.944Z,100.00
2023-04-07T02:55:24.857Z,100.00
2023-04-07T02:57:52.008Z,100.00
2023-04-07T03:00:34.414Z,100.00
2023-04-07T03:03:07.898Z,100.00
2023-04-07T03:05:37.917Z,100.00
2023-04-07T03:08:05.957Z,100.00
2023-04-07T03:10:32.904Z,100.00
2023-04-07T03:12:59.989Z,100.00
2023-04-07T03:15:27.374Z,100.00
2023-04-07T03:17:55.643Z,100.00
2023-04-07T03:20:23.191Z,100.00
2023-04-07T03:22:50.141Z,100.00
2023-04-07T03:25:26.839Z,100.00
2023-04-07T03:27:54.473Z,100.00
2023-04-07T03:30:21.901Z,100.00
2023-04-07T03:32:48.874Z,100.00
2023-04-07T03:35:15.955Z,100.00
2023-04-07T03:37:44.779Z,100.00
2023-04-07T03:40:15.839Z,100.00
2023-04-07T03:42:43.684Z,100.00
2023-04-07T03:45:12.997Z,100.00
2023-04-07T03:47:44.752Z,100.00
2023-04-07T03:50:12.621Z,100.00
2023-04-07T03:52:56.532Z,100.00
2023-04-07T03:55:26.268Z,100.00
2023-04-07T03:57:58.245Z,100.00
2023-04-07T04:00:29.143Z,100.00
2023-04-07T04:03:06.413Z,100.00
2023-04-07T04:05:35.990Z,100.00
2023-04-07T04:08:03.635Z,100.00
2023-04-07T04:10:32.647Z,100.00
2023-04-07T04:13:04.240Z,100.00
2023-04-07T04:15:31.442Z,100.00
2023-04-07T04:17:59.841Z,100.00
2023-04-07T04:20:26.854Z,100.00
2023-04-07T04:22:53.800Z,100.00
2023-04-07T04:25:21.848Z,100.00
2023-04-07T04:27:53.113Z,100.00
2023-04-07T04:30:23.154Z,100.00
2023-04-07T04:32:54.132Z,100.00
2023-04-07T04:35:28.331Z,100.00
2023-04-07T04:38:11.250Z,100.00
2023-04-07T04:40:42.976Z,100.00
2023-04-07T04:43:10.329Z,100.00
2023-04-07T04:45:39.967Z,100.00
2023-04-07T04:48:09.616Z,100.00
2023-04-07T04:50:37.006Z,100.00
2023-04-07T04:53:08.818Z,100.00
2023-04-07T04:55:37.482Z,100.00
2023-04-07T04:58:05.018Z,100.00
2023-04-07T05:00:43.487Z,100.00
2023-04-07T05:03:11.205Z,100.00
2023-04-07T05:05:41.820Z,100.00
2023-04-07T05:08:11.524Z,100.00
2023-04-07T05:10:41.065Z,100.00
2023-04-07T05:13:15.189Z,100.00
2023-04-07T05:15:43.247Z,100.00
2023-04-07T05:18:12.528Z,100.00
2023-04-07T05:20:40.836Z,100.00
2023-04-07T05:23:09.361Z,100.00
2023-04-07T05:25:37.785Z,100.00
2023-04-07T05:28:07.200Z,100.00
2023-04-07T05:30:34.442Z,100.00
2023-04-07T05:33:01.413Z,100.00
2023-04-07T05:35:49.001Z,100.00
2023-04-07T05:38:17.409Z,100.00
2023-04-07T05:40:45.826Z,100.00
2023-04-07T05:43:18.926Z,100.00
2023-04-07T05:45:46.055Z,100.00
2023-04-07T05:48:13.039Z,100.00
2023-04-07T05:50:44.234Z,100.00
2023-04-07T05:53:15.624Z,100.00
2023-04-07T05:55:43.845Z,100.00
2023-04-07T05:58:15.770Z,100.00
2023-04-07T06:00:48.367Z,100.00
2023-04-07T06:03:17.825Z,100.00
2023-04-07T06:06:00.334Z,100.00
2023-04-07T06:08:27.508Z,100.00
2023-04-07T06:10:55.034Z,100.00
2023-04-07T06:13:22.145Z,100.00
2023-04-07T06:15:49.192Z,100.00
2023-04-07T06:18:16.213Z,100.00
2023-04-07T06:20:43.414Z,100.00
2023-04-07T06:23:10.485Z,100.00
2023-04-07T06:25:37.430Z,100.00
2023-04-07T06:28:04.610Z,100.00
2023-04-07T06:30:31.681Z,100.00
2023-04-07T06:32:59.732Z,100.00
2023-04-07T06:35:27.973Z,100.00
2023-04-07T06:37:55.032Z,99.93
2023-04-07T06:40:21.981Z,100.00
2023-04-07T06:42:49.024Z,100.00
2023-04-07T06:45:28.004Z,100.00
2023-04-07T06:47:55.362Z,100.00
2023-04-07T06:50:22.528Z,100.00
2023-04-07T06:52:49.554Z,100.00
2023-04-07T06:55:16.784Z,98.51
2023-04-07T06:57:43.793Z,93.60
2023-04-07T07:00:11.389Z,94.20
2023-04-07T07:02:38.606Z,99.30
2023-04-07T07:05:06.168Z,92.37
2023-04-07T07:07:33.193Z,88.73
2023-04-07T07:10:00.221Z,88.20
2023-04-07T07:12:27.290Z,89.90
2023-04-07T07:14:54.431Z,89.77
2023-04-07T07:17:21.463Z,82.07
2023-04-07T07:19:48.551Z,86.83
2023-04-07T07:22:16.009Z,79.93
2023-04-07T07:24:42.976Z,79.35
2023-04-07T07:27:09.985Z,76.34
2023-04-07T07:29:37.003Z,77.17
2023-04-07T07:32:04.013Z,70.83
2023-04-07T07:34:31.140Z,69.03
2023-04-07T07:36:58.185Z,71.89
2023-04-07T07:39:25.167Z,74.55
2023-04-07T07:41:52.462Z,67.01
2023-04-07T07:44:23.109Z,63.96
2023-04-07T07:46:51.375Z,60.85
2023-04-07T07:49:18.529Z,67.43
2023-04-07T07:51:46.938Z,68.27
2023-04-07T07:54:14.087Z,72.06
2023-04-07T07:56:41.253Z,71.18
2023-04-07T07:59:08.235Z,66.89
2023-04-07T08:01:35.546Z,71.34
2023-04-07T08:04:02.692Z,68.87
2023-04-07T08:06:31.882Z,68.44
2023-04-07T08:08:59.138Z,64.53
2023-04-07T08:11:26.259Z,64.84
2023-04-07T08:13:56.501Z,64.14
2023-04-07T08:16:24.153Z,61.20
2023-04-07T08:18:51.238Z,62.20
2023-04-07T08:21:18.317Z,59.05
2023-04-07T08:23:45.464Z,58.95
2023-04-07T08:26:12.686Z,63.85
2023-04-07T08:28:39.851Z,64.72
2023-04-07T08:31:07.943Z,60.01
2023-04-07T08:33:35.101Z,58.22
2023-04-07T08:36:02.258Z,61.63
2023-04-07T08:38:29.459Z,65.11
2023-04-07T08:41:03.755Z,63.47
2023-04-07T08:43:31.128Z,57.18
2023-04-07T08:45:59.109Z,55.89
2023-04-07T08:48:34.043Z,56.95
2023-04-07T08:51:07.130Z,53.38
2023-04-07T08:53:44.159Z,52.28
2023-04-07T08:56:14.937Z,52.11
2023-04-07T08:58:42.857Z,51.63
2023-04-07T09:01:10.865Z,52.46
2023-04-07T09:03:39.936Z,49.23
2023-04-07T09:06:07.337Z,49.47
2023-04-07T09:08:34.362Z,49.03
2023-04-07T09:11:01.613Z,50.63
2023-04-07T09:13:28.839Z,51.08
2023-04-07T09:15:56.431Z,49.98
2023-04-07T09:18:23.426Z,52.13
2023-04-07T09:21:00.569Z,54.03
2023-04-07T09:23:30.748Z,50.19
2023-04-07T09:26:02.026Z,48.56
2023-04-07T09:28:46.950Z,47.50
2023-04-07T09:31:14.014Z,45.87
2023-04-07T09:33:41.369Z,47.25
2023-04-07T09:36:09.003Z,45.36
2023-04-07T09:38:39.751Z,47.17
2023-04-07T09:41:12.111Z,46.69
2023-04-07T09:43:49.708Z,47.93
2023-04-07T09:46:20.484Z,47.13
2023-04-07T09:48:48.816Z,45.17
2023-04-07T09:51:18.093Z,45.65
2023-04-07T09:53:50.892Z,43.92
2023-04-07T09:56:22.689Z,42.79
2023-04-07T09:58:52.115Z,45.03
2023-04-07T10:01:21.611Z,44.44
2023-04-07T10:03:51.481Z,44.08
2023-04-07T10:06:21.016Z,42.72
2023-04-07T10:08:48.098Z,44.08
2023-04-07T10:11:16.019Z,42.94
2023-04-07T10:13:43.222Z,42.69
2023-04-07T10:16:10.179Z,42.11
2023-04-07T10:18:39.610Z,40.78
2023-04-07T10:21:09.502Z,41.36
2023-04-07T10:23:51.852Z,42.34
2023-04-07T10:26:24.297Z,40.87
2023-04-07T10:28:58.742Z,41.52
2023-04-07T10:31:26.744Z,40.57
2023-04-07T10:33:55.184Z,38.46
2023-04-07T10:36:25.621Z,39.37
2023-04-07T10:39:08.122Z,37.82
2023-04-07T10:41:54.602Z,34.96
2023-04-07T10:44:39.996Z,34.92
2023-04-07T10:47:09.756Z,34.50
2023-04-07T10:49:36.846Z,34.07
2023-04-07T10:52:38.376Z,34.29
2023-04-07T10:55:31.174Z,32.00
2023-04-07T10:58:16.755Z,33.33
2023-04-07T11:01:06.429Z,33.76
2023-04-07T11:03:42.697Z,35.93
2023-04-07T11:06:11.564Z,32.64
2023-04-07T11:08:40.796Z,34.07
2023-04-07T11:11:09.794Z,34.28
2023-04-07T11:13:52.105Z,37.03
2023-04-07T11:16:36.898Z,35.65
2023-04-07T11:19:04.004Z,34.26
2023-04-07T11:21:30.984Z,34.26
2023-04-07T11:23:58.063Z,33.50
2023-04-07T11:26:25.386Z,33.44
2023-04-07T11:28:54.067Z,33.61
2023-04-07T11:31:28.178Z,32.95
2023-04-07T11:34:02.992Z,32.33
2023-04-07T11:36:31.433Z,31.23
2023-04-07T11:38:59.336Z,31.66
2023-04-07T11:41:28.870Z,33.36
2023-04-07T11:44:27.012Z,30.09
2023-04-07T11:46:58.595Z,29.15
2023-04-07T11:49:32.102Z,29.42
2023-04-07T11:52:05.896Z,31.06
2023-04-07T11:55:00.475Z,29.53
2023-04-07T11:57:29.509Z,29.04
2023-04-07T12:00:09.753Z,29.49
2023-04-07T12:02:37.504Z,28.08
2023-04-07T12:05:06.125Z,28.76
2023-04-07T12:07:33.656Z,28.47
2023-04-07T12:10:18.682Z,27.59
2023-04-07T12:12:47.009Z,30.81
2023-04-07T12:15:14.142Z,29.64
2023-04-07T12:17:47.714Z,31.34
2023-04-07T12:20:16.629Z,30.29
2023-04-07T12:22:43.763Z,30.19
2023-04-07T12:25:10.832Z,31.13
2023-04-07T12:27:43.300Z,30.10
2023-04-07T12:30:13.368Z,29.50
2023-04-07T12:32:40.536Z,30.13
2023-04-07T12:35:07.851Z,28.89
2023-04-07T12:37:35.096Z,28.83
2023-04-07T12:40:02.147Z,29.15
2023-04-07T12:42:29.107Z,28.59
2023-04-07T12:44:56.994Z,28.92
2023-04-07T12:47:24.072Z,28.14
2023-04-07T12:49:51.390Z,27.84
2023-04-07T12:52:18.397Z,28.61
2023-04-07T12:54:45.644Z,28.99
2023-04-07T12:57:12.941Z,28.64
2023-04-07T12:59:40.089Z,28.03
2023-04-07T13:02:07.572Z,27.66
2023-04-07T13:04:35.657Z,29.75
2023-04-07T13:07:03.462Z,31.52
2023-04-07T13:09:30.493Z,30.41
2023-04-07T13:11:58.131Z,33.76
2023-04-07T13:14:25.255Z,34.90
2023-04-07T13:16:52.370Z,35.14
2023-04-07T13:19:19.601Z,33.55
2023-04-07T13:21:49.716Z,34.89
2023-04-07T13:24:16.701Z,36.40
2023-04-07T13:26:43.696Z,34.76
2023-04-07T13:29:10.745Z,33.88
2023-04-07T13:31:37.707Z,33.24
2023-04-07T13:34:04.642Z,33.67
2023-04-07T13:36:31.641Z,33.32
2023-04-07T13:38:58.644Z,31.51
2023-04-07T13:41:26.781Z,31.83
2023-04-07T13:43:53.973Z,32.51
2023-04-07T13:46:28.632Z,33.89
2023-04-07T13:48:57.021Z,34.45
2023-04-07T13:51:24.110Z,33.99
2023-04-07T13:53:51.214Z,34.73
2023-04-07T13:56:25.291Z,34.54
2023-04-07T13:58:52.844Z,34.70
2023-04-07T14:01:19.943Z,34.32
2023-04-07T14:03:47.289Z,34.66
2023-04-07T14:06:14.812Z,34.57
2023-04-07T14:08:41.832Z,35.03
2023-04-07T14:11:08.844Z,35.44
2023-04-07T14:13:36.696Z,35.73
2023-04-07T14:16:06.669Z,35.97
2023-04-07T14:18:33.582Z,36.70
2023-04-07T14:21:01.882Z,35.87
2023-04-07T14:23:36.602Z,36.90
2023-04-07T14:26:05.754Z,36.76
2023-04-07T14:28:32.878Z,35.97
2023-04-07T14:30:59.902Z,35.94
2023-04-07T14:33:28.664Z,35.49
2023-04-07T14:35:56.033Z,36.04
2023-04-07T14:38:24.677Z,36.34
2023-04-07T14:40:54.668Z,36.42
2023-04-07T14:43:21.489Z,36.04
2023-04-07T14:45:48.576Z,35.90
2023-04-07T14:48:17.411Z,36.19
2023-04-07T14:50:44.319Z,35.65
2023-04-07T14:53:11.336Z,35.21
2023-04-07T14:55:38.294Z,35.67
2023-04-07T14:58:05.203Z,35.49
2023-04-07T15:00:32.268Z,35.19
2023-04-07T15:02:59.382Z,35.03
2023-04-07T15:05:30.831Z,35.61
2023-04-07T15:07:58.938Z,35.77
2023-04-07T15:10:26.114Z,35.82
2023-04-07T15:12:53.046Z,35.83
2023-04-07T15:15:20.172Z,35.85
2023-04-07T15:17:47.166Z,35.64
2023-04-07T15:20:14.200Z,35.45
2023-04-07T15:22:41.338Z,35.92
2023-04-07T15:25:08.953Z,35.80
2023-04-07T15:27:36.128Z,36.26
2023-04-07T15:30:03.490Z,36.60
2023-04-07T15:32:33.701Z,36.79
2023-04-07T15:35:01.075Z,36.56
2023-04-07T15:37:28.014Z,36.40
2023-04-07T15:39:54.933Z,36.46
2023-04-07T15:42:21.828Z,37.32
2023-04-07T15:44:53.839Z,37.04
2023-04-07T15:47:20.864Z,38.12
2023-04-07T15:49:47.879Z,37.54
2023-04-07T15:52:14.870Z,37.73
2023-04-07T15:54:41.924Z,36.63
2023-04-07T15:57:08.861Z,36.32
2023-04-07T15:59:36.459Z,37.04
2023-04-07T16:02:03.684Z,37.10
2023-04-07T16:04:30.741Z,36.67
2023-04-07T16:06:57.765Z,36.12
2023-04-07T16:09:24.697Z,36.48
2023-04-07T16:11:51.750Z,36.20
2023-04-07T16:14:18.681Z,35.96
2023-04-07T16:16:45.678Z,36.64
2023-04-07T16:19:14.846Z,36.90
2023-04-07T16:21:41.825Z,36.71
2023-04-07T16:24:08.708Z,36.92
2023-04-07T16:26:35.916Z,36.53
2023-04-07T16:29:02.976Z,37.05
2023-04-07T16:31:30.117Z,36.79
2023-04-07T16:33:57.128Z,36.89
2023-04-07T16:36:24.081Z,37.12
2023-04-07T16:38:52.964Z,37.41
2023-04-07T16:41:20.433Z,37.71
2023-04-07T16:43:47.729Z,37.19
2023-04-07T16:46:14.984Z,37.11
2023-04-07T16:48:41.995Z,36.43
2023-04-07T16:51:09.061Z,36.23
2023-04-07T16:53:36.010Z,36.64
2023-04-07T16:56:03.463Z,36.07
2023-04-07T16:58:30.418Z,36.27
2023-04-07T17:00:57.476Z,35.97
2023-04-07T17:03:24.834Z,36.27
2023-04-07T17:05:52.154Z,37.03
2023-04-07T17:08:19.064Z,37.75
2023-04-07T17:10:46.156Z,38.11
2023-04-07T17:13:13.219Z,38.66
2023-04-07T17:15:40.169Z,39.40
2023-04-07T17:18:07.232Z,39.28
2023-04-07T17:20:34.316Z,39.60
2023-04-07T17:23:01.284Z,39.83
2023-04-07T17:25:28.278Z,40.20
2023-04-07T17:27:55.418Z,40.19
2023-04-07T17:30:22.784Z,40.95
2023-04-07T17:32:54.002Z,41.20
2023-04-07T17:35:21.738Z,41.51
2023-04-07T17:37:49.377Z,42.62
2023-04-07T17:40:16.609Z,42.61
2023-04-07T17:42:43.589Z,43.63
2023-04-07T17:45:11.111Z,43.37
2023-04-07T17:47:38.109Z,43.65
2023-04-07T17:50:05.623Z,43.80
2023-04-07T17:52:32.927Z,44.06
2023-04-07T17:54:59.901Z,44.20
2023-04-07T17:57:26.873Z,43.95
2023-04-07T17:59:53.883Z,44.40
2023-04-07T18:02:21.212Z,44.34
2023-04-07T18:04:48.514Z,44.28
2023-04-07T18:07:15.702Z,44.39
2023-04-07T18:09:43.284Z,45.32
2023-04-07T18:12:10.315Z,45.96
2023-04-07T18:14:37.775Z,46.92
2023-04-07T18:17:04.668Z,47.26
2023-04-07T18:19:33.185Z,47.58
2023-04-07T18:22:01.193Z,48.06
2023-04-07T18:24:28.261Z,47.92
2023-04-07T18:26:55.968Z,48.20
2023-04-07T18:29:22.968Z,48.96
2023-04-07T18:31:50.072Z,49.16
2023-04-07T18:34:17.181Z,49.61
2023-04-07T18:36:44.413Z,50.18
2023-04-07T18:39:11.393Z,50.47
2023-04-07T18:41:38.345Z,50.89
2023-04-07T18:44:05.302Z,51.52
2023-04-07T18:46:32.383Z,52.02
2023-04-07T18:48:59.378Z,52.25
2023-04-07T18:51:26.612Z,52.11
2023-04-07T18:53:53.561Z,52.37
2023-04-07T18:56:23.289Z,52.38
2023-04-07T18:58:51.444Z,53.12
2023-04-07T19:01:18.332Z,52.91
2023-04-07T19:03:45.420Z,53.01
2023-04-07T19:06:16.224Z,53.35
2023-04-07T19:08:43.555Z,53.47
2023-04-07T19:11:10.682Z,53.06
2023-04-07T19:13:37.725Z,53.89
2023-04-07T19:16:05.359Z,53.75
2023-04-07T19:18:32.402Z,53.81
2023-04-07T19:20:59.292Z,54.23
2023-04-07T19:23:26.416Z,55.29
2023-04-07T19:25:53.499Z,54.99
2023-04-07T19:28:20.985Z,55.17
2023-04-07T19:30:47.986Z,54.99
2023-04-07T19:33:14.973Z,55.39
2023-04-07T19:35:42.184Z,54.65
2023-04-07T19:38:09.190Z,55.15
2023-04-07T19:40:36.881Z,54.53
2023-04-07T19:43:03.836Z,54.40
2023-04-07T19:45:31.002Z,54.00
2023-04-07T19:47:58.564Z,53.51
2023-04-07T19:50:25.816Z,52.87
2023-04-07T19:52:53.618Z,53.25
2023-04-07T19:55:21.041Z,53.44
2023-04-07T19:57:49.023Z,53.77
2023-04-07T20:00:16.354Z,53.62
2023-04-07T20:02:50.158Z,53.85
2023-04-07T20:05:18.536Z,53.90
2023-04-07T20:07:46.474Z,53.90
2023-04-07T20:10:13.681Z,54.10
2023-04-07T20:12:40.795Z,54.79
2023-04-07T20:15:08.496Z,55.05
2023-04-07T20:17:37.306Z,54.97
2023-04-07T20:20:06.124Z,55.86
2023-04-07T20:22:34.238Z,56.39
2023-04-07T20:25:05.180Z,56.73
2023-04-07T20:27:33.148Z,57.07
2023-04-07T20:30:01.070Z,56.97
2023-04-07T20:32:28.499Z,56.95
2023-04-07T20:34:55.690Z,57.79
2023-04-07T20:37:23.530Z,59.22
2023-04-07T20:39:50.668Z,61.40
2023-04-07T20:42:17.919Z,64.24
2023-04-07T20:44:48.672Z,65.83
2023-04-07T20:47:15.930Z,68.79
2023-04-07T20:49:44.081Z,72.03
2023-04-07T20:52:11.237Z,73.77
2023-04-07T20:54:38.230Z,77.81
2023-04-07T20:57:05.264Z,82.53
2023-04-07T20:59:32.992Z,85.32
2023-04-07T21:02:00.224Z,87.63
2023-04-07T21:04:27.792Z,88.66
2023-04-07T21:06:55.052Z,89.01
2023-04-07T21:09:22.519Z,89.18
2023-04-07T21:11:49.631Z,89.60
2023-04-07T21:14:16.700Z,90.97
2023-04-07T21:16:44.254Z,92.65
2023-04-07T21:19:11.406Z,93.10
2023-04-07T21:21:38.487Z,93.60
2023-04-07T21:24:05.703Z,93.44
2023-04-07T21:26:32.925Z,93.90
2023-04-07T21:28:59.982Z,95.14
2023-04-07T21:31:27.501Z,96.03
2023-04-07T21:33:55.212Z,96.74
2023-04-07T21:36:22.348Z,96.86
2023-04-07T21:38:54.014Z,97.11
2023-04-07T21:41:21.692Z,97.75
2023-04-07T21:43:48.715Z,98.46
2023-04-07T21:46:18.646Z,98.54
2023-04-07T21:48:45.906Z,98.89
2023-04-07T21:51:13.071Z,98.15
2023-04-07T21:53:43.085Z,98.80
2023-04-07T21:56:10.224Z,98.45
2023-04-07T21:58:37.673Z,98.69
2023-04-07T22:01:05.107Z,98.93
2023-04-07T22:03:32.339Z,98.15
2023-04-07T22:06:00.598Z,97.00
2023-04-07T22:08:29.427Z,97.73
2023-04-07T22:10:57.005Z,98.21
2023-04-07T22:13:23.983Z,97.51
2023-04-07T22:15:51.195Z,98.65
2023-04-07T22:18:21.503Z,99.82
2023-04-07T22:20:52.316Z,100.00
2023-04-07T22:23:19.209Z,100.00
2023-04-07T22:25:46.463Z,100.00
2023-04-07T22:28:15.766Z,100.00
2023-04-07T22:30:42.815Z,100.00
2023-04-07T22:33:10.858Z,100.00
2023-04-07T22:35:40.355Z,100.00
2023-04-07T22:38:07.483Z,100.00
2023-04-07T22:40:34.484Z,100.00
2023-04-07T22:43:15.818Z,100.00
2023-04-07T22:45:46.234Z,100.00
2023-04-07T22:48:13.648Z,100.00
2023-04-07T22:50:42.025Z,100.00
2023-04-07T22:53:09.067Z,100.00
2023-04-07T22:55:36.640Z,100.00
2023-04-07T22:58:03.846Z,100.00
2023-04-07T23:00:30.820Z,100.00
2023-04-07T23:02:58.221Z,100.00
2023-04-07T23:05:25.486Z,100.00
2023-04-07T23:07:53.799Z,100.00
2023-04-07T23:10:21.089Z,100.00
2023-04-07T23:12:48.386Z,100.00
2023-04-07T23:15:15.518Z,100.00
2023-04-07T23:17:42.764Z,100.00
2023-04-07T23:20:11.664Z,100.00
2023-04-07T23:22:38.689Z,100.00
2023-04-07T23:25:07.473Z,100.00
2023-04-07T23:27:34.936Z,100.00
2023-04-07T23:30:02.472Z,100.00
2023-04-07T23:32:29.939Z,100.00
2023-04-07T23:34:57.156Z,100.00
2023-04-07T23:37:26.799Z,100.00
2023-04-07T23:39:54.184Z,100.00
2023-04-07T23:42:22.521Z,100.00
2023-04-07T23:44:49.608Z,100.00
2023-04-07T23:47:20.010Z,100.00
2023-04-07T23:49:47.160Z,100.00
2023-04-07T23:52:15.444Z,100.00
2023-04-07T23:54:43.540Z,100.00
2023-04-07T23:57:10.860Z,100.00
2023-04-07T23:59:37.935Z,100.00
